createdAt,value
2019-05-05T00:02:57.790Z,73.17
2019-05-05T00:11:35.223Z,73.28
2019-05-05T00:14:44.239Z,73.75
2019-05-05T00:17:34.248Z,73.97
2019-05-05T00:20:22.259Z,74.07
2019-05-05T00:23:09.898Z,74.13
2019-05-05T00:25:57.643Z,74.51
2019-05-05T00:28:45.219Z,74.08
2019-05-05T00:31:34.833Z,73.65
2019-05-05T00:34:24.327Z,74.03
2019-05-05T00:36:52.282Z,74.06
2019-05-05T00:39:20.681Z,73.59
2019-05-05T00:42:08.691Z,73.46
2019-05-05T00:44:56.431Z,73.99
2019-05-05T00:50:52.365Z,73.51
2019-05-05T00:54:00.675Z,73.45
2019-05-05T00:56:48.319Z,73.30
2019-05-05T00:59:36.065Z,73.48
2019-05-05T01:02:44.811Z,73.40
2019-05-05T01:05:52.981Z,73.35
2019-05-05T01:14:05.187Z,73.91
2019-05-05T01:16:35.257Z,74.27
2019-05-05T01:19:24.324Z,73.64
2019-05-05T01:24:40.519Z,73.56
2019-05-05T01:27:28.499Z,73.44
2019-05-05T01:41:21.766Z,74.25
2019-05-05T01:43:50.158Z,74.39
2019-05-05T01:46:18.563Z,74.76
2019-05-05T01:51:55.312Z,74.83
2019-05-05T01:54:24.970Z,75.32
2019-05-05T01:57:34.442Z,75.92
2019-05-05T02:00:45.192Z,76.38
2019-05-05T02:03:35.037Z,77.59
2019-05-05T02:08:57.572Z,78.33
2019-05-05T02:11:45.420Z,78.24
2019-05-05T02:14:15.672Z,78.53
2019-05-05T02:16:45.478Z,78.23
2019-05-05T02:19:14.359Z,78.76
2019-05-05T02:21:45.356Z,79.07
2019-05-05T02:24:14.535Z,79.86
2019-05-05T02:29:37.301Z,80.02
2019-05-05T02:32:45.199Z,79.83
2019-05-05T02:38:15.367Z,78.59
2019-05-05T02:41:25.298Z,78.47
2019-05-05T02:46:46.024Z,78.71
2019-05-05T02:51:45.028Z,77.75
2019-05-05T02:54:13.953Z,78.03
2019-05-05T02:56:45.835Z,77.84
2019-05-05T02:59:17.607Z,77.48
2019-05-05T03:01:47.792Z,77.02
2019-05-05T03:04:16.614Z,77.53
2019-05-05T03:06:48.077Z,77.09
2019-05-05T03:09:18.506Z,76.89
2019-05-05T03:11:49.070Z,77.10
2019-05-05T03:14:19.814Z,76.87
2019-05-05T03:16:49.362Z,76.30
2019-05-05T03:19:18.794Z,75.94
2019-05-05T03:21:47.371Z,76.40
2019-05-05T03:24:16.310Z,76.19
2019-05-05T03:26:44.711Z,76.41
2019-05-05T03:29:17.658Z,76.41
2019-05-05T03:31:46.410Z,76.44
2019-05-05T03:34:16.309Z,76.06
2019-05-05T03:36:45.029Z,76.29
2019-05-05T03:39:20.755Z,76.40
2019-05-05T03:41:54.376Z,77.51
2019-05-05T03:44:24.402Z,78.33
2019-05-05T03:46:54.352Z,78.25
2019-05-05T03:49:24.351Z,78.52
2019-05-05T03:51:54.322Z,78.39
2019-05-05T03:54:23.840Z,78.59
2019-05-05T03:56:54.521Z,77.88
2019-05-05T03:59:24.332Z,78.03
2019-05-05T04:01:54.672Z,77.59
2019-05-05T04:04:27.459Z,77.50
2019-05-05T04:06:58.071Z,77.08
2019-05-05T04:09:26.832Z,76.90
2019-05-05T04:11:55.239Z,76.59
2019-05-05T04:14:25.045Z,76.34
2019-05-05T04:16:55.211Z,76.16
2019-05-05T04:19:27.981Z,76.51
2019-05-05T04:21:56.543Z,76.31
2019-05-05T04:24:24.932Z,75.99
2019-05-05T04:26:54.562Z,75.83
2019-05-05T04:29:24.411Z,75.67
2019-05-05T04:31:54.071Z,75.56
2019-05-05T04:34:24.120Z,75.45
2019-05-05T04:36:54.525Z,75.34
2019-05-05T04:39:23.699Z,75.38
2019-05-05T04:41:52.153Z,75.17
2019-05-05T04:44:20.596Z,75.52
2019-05-05T04:46:50.634Z,76.79
2019-05-05T04:49:20.670Z,76.59
2019-05-05T04:51:50.713Z,76.06
2019-05-05T04:54:29.725Z,75.45
2019-05-05T04:56:58.125Z,75.01
2019-05-05T04:59:26.528Z,75.01
2019-05-05T05:01:56.569Z,74.91
2019-05-05T05:04:33.647Z,75.14
2019-05-05T05:07:04.625Z,75.13
2019-05-05T05:09:34.173Z,75.01
2019-05-05T05:12:04.061Z,74.65
2019-05-05T05:14:33.723Z,76.53
2019-05-05T05:17:03.898Z,72.65
2019-05-05T05:19:33.524Z,63.05
2019-05-05T05:22:04.667Z,54.56
2019-05-05T05:24:34.160Z,50.80
2019-05-05T05:27:02.224Z,45.20
2019-05-05T05:29:30.687Z,41.99
2019-05-05T05:31:59.189Z,38.41
2019-05-05T05:34:27.596Z,37.37
2019-05-05T05:36:55.993Z,36.38
2019-05-05T05:39:33.574Z,34.01
2019-05-05T05:42:04.323Z,31.92
2019-05-05T05:44:39.765Z,30.42
2019-05-05T05:47:14.072Z,28.85
2019-05-05T05:50:00.510Z,28.54
2019-05-05T05:52:28.913Z,27.29
2019-05-05T05:54:57.308Z,26.34
2019-05-05T05:57:25.699Z,25.05
2019-05-05T05:59:54.849Z,24.33
2019-05-05T06:02:24.180Z,23.87
2019-05-05T06:04:53.945Z,22.96
2019-05-05T06:07:24.430Z,23.43
2019-05-05T06:09:54.173Z,23.45
2019-05-05T06:12:24.532Z,22.36
2019-05-05T06:14:53.697Z,21.92
2019-05-05T06:17:23.758Z,21.40
2019-05-05T06:19:53.430Z,20.84
2019-05-05T06:22:29.209Z,20.42
2019-05-05T06:24:53.972Z,19.94
2019-05-05T06:27:23.601Z,19.65
2019-05-05T06:29:54.116Z,18.78
2019-05-05T06:32:23.821Z,19.82
2019-05-05T06:34:53.500Z,18.86
2019-05-05T06:37:23.786Z,19.02
2019-05-05T06:39:54.398Z,19.06
2019-05-05T06:42:30.290Z,18.60
2019-05-05T06:45:04.151Z,18.75
2019-05-05T06:47:34.032Z,18.10
2019-05-05T06:50:03.671Z,18.32
2019-05-05T06:52:43.766Z,18.19
2019-05-05T06:55:03.723Z,18.40
2019-05-05T06:57:34.206Z,18.54
2019-05-05T07:00:03.656Z,18.34
2019-05-05T07:02:34.182Z,17.97
2019-05-05T07:05:04.085Z,17.53
2019-05-05T07:07:34.271Z,18.22
2019-05-05T07:10:03.735Z,18.65
2019-05-05T07:12:34.552Z,18.39
2019-05-05T07:15:04.248Z,18.42
2019-05-05T07:17:33.793Z,17.94
2019-05-05T07:20:04.354Z,17.77
2019-05-05T07:22:34.667Z,18.25
2019-05-05T07:25:04.710Z,17.97
2019-05-05T07:27:33.938Z,17.69
2019-05-05T07:30:04.603Z,17.80
2019-05-05T07:32:33.835Z,18.27
2019-05-05T07:35:21.727Z,18.55
2019-05-05T07:37:50.228Z,19.77
2019-05-05T07:40:18.627Z,18.59
2019-05-05T07:42:47.024Z,18.26
2019-05-05T07:45:22.455Z,18.89
2019-05-05T07:47:47.512Z,19.30
2019-05-05T07:50:28.499Z,18.64
2019-05-05T07:52:46.984Z,20.07
2019-05-05T07:55:15.526Z,20.40
2019-05-05T07:57:43.929Z,18.96
2019-05-05T08:00:14.648Z,19.09
2019-05-05T08:02:43.929Z,19.68
2019-05-05T08:05:14.110Z,20.04
2019-05-05T08:07:44.506Z,19.93
2019-05-05T08:10:13.654Z,21.57
2019-05-05T08:12:43.698Z,19.52
2019-05-05T08:15:14.710Z,20.31
2019-05-05T08:18:00.218Z,19.77
2019-05-05T08:20:35.792Z,20.05
2019-05-05T08:23:06.410Z,20.76
2019-05-05T08:25:45.377Z,20.46
2019-05-05T08:28:23.939Z,20.35
2019-05-05T08:31:03.960Z,21.09
2019-05-05T08:33:33.617Z,22.77
2019-05-05T08:36:04.320Z,20.71
2019-05-05T08:38:32.191Z,22.61
2019-05-05T08:41:00.590Z,23.63
2019-05-05T08:43:28.988Z,26.11
2019-05-05T08:45:57.397Z,25.99
2019-05-05T08:48:25.796Z,26.79
2019-05-05T08:50:54.278Z,26.30
2019-05-05T08:53:24.338Z,26.82
2019-05-05T08:55:54.615Z,26.59
2019-05-05T08:58:23.799Z,27.62
2019-05-05T09:00:53.691Z,30.90
2019-05-05T09:03:24.208Z,30.35
2019-05-05T09:05:54.229Z,30.27
2019-05-05T09:08:24.124Z,30.61
2019-05-05T09:10:55.016Z,30.44
2019-05-05T09:13:24.679Z,31.76
2019-05-05T09:15:54.416Z,31.37
2019-05-05T09:18:24.584Z,34.34
2019-05-05T09:20:53.778Z,32.24
2019-05-05T09:23:24.055Z,36.83
2019-05-05T09:25:57.086Z,32.26
2019-05-05T09:28:34.097Z,32.56
2019-05-05T09:31:04.150Z,32.47
2019-05-05T09:33:33.902Z,33.02
2019-05-05T09:36:04.524Z,34.31
2019-05-05T09:38:34.516Z,33.63
2019-05-05T09:41:03.835Z,33.52
2019-05-05T09:43:34.356Z,33.79
2019-05-05T09:46:03.939Z,35.17
2019-05-05T09:48:33.577Z,35.57
2019-05-05T09:51:04.195Z,36.58
2019-05-05T09:53:34.270Z,38.85
2019-05-05T09:56:04.045Z,36.98
2019-05-05T09:58:34.599Z,37.44
2019-05-05T10:01:03.980Z,33.89
2019-05-05T10:03:34.097Z,36.76
2019-05-05T10:06:04.694Z,37.91
2019-05-05T10:08:34.126Z,35.10
2019-05-05T10:11:04.084Z,31.22
2019-05-05T10:13:33.607Z,33.29
2019-05-05T10:19:17.169Z,32.34
2019-05-05T10:21:45.575Z,33.32
2019-05-05T10:27:47.382Z,33.62
2019-05-05T10:30:30.962Z,35.94
2019-05-05T10:32:59.372Z,39.25
2019-05-05T10:38:23.555Z,43.02
2019-05-05T10:41:33.793Z,43.14
2019-05-05T10:44:22.030Z,42.92
2019-05-05T10:46:50.441Z,43.99
2019-05-05T10:49:37.957Z,45.67
2019-05-05T10:52:06.376Z,43.32
2019-05-05T10:54:44.111Z,43.92
2019-05-05T10:57:04.938Z,45.88
2019-05-05T10:59:34.377Z,46.29
2019-05-05T11:04:58.606Z,42.22
2019-05-05T11:07:46.422Z,40.00
2019-05-05T11:10:54.736Z,39.58
2019-05-05T11:16:18.002Z,39.90
2019-05-05T11:22:34.721Z,41.91
2019-05-05T11:25:44.656Z,41.80
2019-05-05T11:31:07.544Z,41.60
2019-05-05T11:36:50.079Z,42.08
2019-05-05T11:39:37.601Z,44.97
2019-05-05T11:44:40.004Z,44.99
2019-05-05T11:47:27.685Z,46.82
2019-05-05T11:55:37.113Z,54.97
2019-05-05T11:58:05.561Z,59.87
2019-05-05T12:00:54.483Z,61.04
2019-05-05T12:06:18.486Z,61.58
2019-05-05T12:09:06.041Z,62.26
2019-05-05T12:11:54.585Z,61.76
2019-05-05T12:16:59.172Z,63.50
2019-05-05T12:22:15.023Z,62.75
2019-05-05T12:27:51.656Z,63.11
2019-05-05T12:33:07.514Z,61.43
2019-05-05T12:38:44.109Z,61.26
2019-05-05T12:41:21.017Z,58.19
2019-05-05T12:43:49.529Z,55.58
2019-05-05T12:46:37.050Z,54.67
2019-05-05T12:51:41.048Z,53.10
2019-05-05T12:54:28.641Z,53.05
2019-05-05T12:57:16.292Z,52.67
2019-05-05T12:59:44.697Z,50.21
2019-05-05T13:02:32.479Z,50.64
2019-05-05T13:05:00.879Z,50.64
2019-05-05T13:07:29.297Z,51.23
2019-05-05T13:09:57.777Z,53.48
2019-05-05T13:12:45.550Z,52.76
2019-05-05T13:15:53.857Z,52.33
2019-05-05T13:18:24.449Z,52.55
2019-05-05T13:26:55.035Z,53.02
2019-05-05T13:31:58.062Z,52.88
2019-05-05T13:34:26.594Z,50.75
2019-05-05T13:36:55.006Z,50.67
2019-05-05T13:39:24.721Z,52.08
2019-05-05T13:41:53.974Z,49.58
2019-05-05T13:44:30.201Z,48.13
2019-05-05T13:46:58.597Z,49.16
2019-05-05T13:49:31.377Z,48.59
2019-05-05T13:52:01.408Z,49.19
2019-05-05T13:54:29.816Z,46.71
2019-05-05T13:56:58.217Z,45.45
2019-05-05T13:59:26.633Z,44.96
2019-05-05T14:01:55.035Z,45.04
2019-05-05T14:04:23.445Z,46.15
2019-05-05T14:06:51.851Z,46.25
2019-05-05T14:09:20.435Z,42.88
2019-05-05T14:11:48.929Z,45.88
2019-05-05T14:14:17.347Z,46.74
2019-05-05T14:16:45.747Z,50.13
2019-05-05T14:19:14.749Z,49.97
2019-05-05T14:21:44.630Z,48.11
2019-05-05T14:24:14.791Z,46.72
2019-05-05T14:26:43.190Z,44.70
2019-05-05T14:29:14.672Z,44.13
2019-05-05T14:31:44.475Z,43.10
2019-05-05T14:34:16.905Z,42.01
2019-05-05T14:36:46.944Z,42.71
2019-05-05T14:39:16.990Z,43.74
2019-05-05T14:41:45.390Z,44.00
2019-05-05T14:44:14.113Z,44.11
2019-05-05T14:46:44.487Z,44.33
2019-05-05T14:51:46.532Z,41.10
2019-05-05T14:54:34.234Z,40.62
2019-05-05T15:00:50.908Z,41.20
2019-05-05T15:03:38.551Z,38.46
2019-05-05T15:09:03.847Z,39.06
2019-05-05T15:11:50.788Z,40.09
2019-05-05T15:16:54.282Z,39.75
2019-05-05T15:20:03.052Z,39.22
2019-05-05T15:25:18.914Z,38.02
2019-05-05T15:27:47.307Z,38.58
2019-05-05T15:30:55.630Z,38.72
2019-05-05T15:33:24.439Z,38.61
2019-05-05T15:36:34.067Z,38.38
2019-05-05T15:41:49.913Z,38.60
2019-05-05T15:44:18.317Z,39.67
2019-05-05T15:46:48.591Z,39.82
2019-05-05T15:49:35.972Z,40.94
2019-05-05T15:52:07.053Z,41.76
2019-05-05T15:54:34.500Z,40.15
2019-05-05T15:57:23.982Z,39.14
2019-05-05T16:00:11.529Z,38.43
2019-05-05T16:02:59.261Z,40.23
2019-05-05T16:05:46.911Z,39.96
2019-05-05T16:08:15.313Z,40.43
2019-05-05T16:10:46.492Z,39.21
2019-05-05T16:13:14.008Z,39.67
2019-05-05T16:24:16.045Z,42.12
2019-05-05T16:27:08.199Z,41.69
2019-05-05T16:29:33.735Z,41.28
2019-05-05T16:32:22.220Z,41.37
2019-05-05T16:35:10.603Z,40.98
2019-05-05T16:40:26.444Z,39.51
2019-05-05T16:43:16.737Z,39.87
2019-05-05T16:48:18.135Z,40.07
2019-05-05T16:56:39.623Z,40.68
2019-05-05T16:59:08.026Z,40.90
2019-05-05T17:04:12.147Z,40.35
2019-05-05T17:06:41.009Z,40.01
2019-05-05T17:09:28.657Z,39.86
2019-05-05T17:12:18.234Z,39.42
2019-05-05T17:15:05.424Z,39.92
2019-05-05T17:17:54.025Z,40.81
2019-05-05T17:21:01.612Z,40.79
2019-05-05T17:23:49.117Z,40.41
2019-05-05T17:26:17.537Z,41.04
2019-05-05T17:28:45.943Z,41.13
2019-05-05T17:31:34.030Z,40.64
2019-05-05T17:34:24.746Z,40.69
2019-05-05T17:36:53.678Z,41.41
2019-05-05T17:45:07.047Z,42.02
2019-05-05T17:47:54.569Z,42.14
2019-05-05T17:53:31.168Z,42.92
2019-05-05T17:58:35.221Z,43.38
2019-05-05T18:01:23.856Z,44.08
2019-05-05T18:03:54.499Z,43.52
2019-05-05T18:06:44.066Z,43.64
2019-05-05T18:12:20.722Z,44.21
2019-05-05T18:17:38.222Z,45.87
2019-05-05T18:20:46.533Z,47.68
2019-05-05T18:23:14.937Z,49.03
2019-05-05T18:26:04.113Z,50.07
2019-05-05T18:28:34.059Z,51.07
2019-05-05T18:31:02.709Z,50.94
2019-05-05T18:33:31.110Z,51.30
2019-05-05T18:35:59.507Z,51.55
2019-05-05T18:38:47.030Z,51.81
2019-05-05T18:44:44.409Z,51.62
2019-05-05T18:50:10.947Z,52.97
2019-05-05T18:52:58.598Z,53.23
2019-05-05T18:55:27.005Z,54.29
2019-05-05T18:58:26.921Z,53.90
2019-05-05T19:01:03.931Z,53.96
2019-05-05T19:03:51.481Z,54.31
2019-05-05T19:09:53.829Z,54.87
2019-05-05T19:12:38.195Z,55.43
2019-05-05T19:15:46.493Z,55.20
2019-05-05T19:23:51.679Z,56.14
2019-05-05T19:26:20.081Z,55.88
2019-05-05T19:33:57.612Z,56.24
2019-05-05T19:36:27.517Z,56.49
2019-05-05T19:38:56.124Z,56.34
2019-05-05T19:41:46.765Z,56.12
2019-05-05T19:44:14.696Z,56.31
2019-05-05T19:47:05.655Z,56.04
2019-05-05T19:49:33.796Z,56.56
2019-05-05T19:52:24.004Z,56.75
2019-05-05T19:54:54.680Z,56.83
2019-05-05T19:57:22.928Z,56.98
2019-05-05T20:00:10.637Z,57.46
2019-05-05T20:02:39.037Z,57.62
2019-05-05T20:05:47.343Z,58.02
2019-05-05T20:08:15.752Z,58.24
2019-05-05T20:11:04.878Z,58.47
2019-05-05T20:13:33.622Z,58.89
2019-05-05T20:16:40.402Z,59.51
2019-05-05T20:22:02.072Z,60.91
2019-05-05T20:24:30.486Z,60.87
2019-05-05T20:26:59.024Z,60.65
2019-05-05T20:29:46.683Z,60.88
2019-05-05T20:35:44.142Z,61.25
2019-05-05T20:41:26.284Z,61.61
2019-05-05T20:46:28.965Z,62.53
2019-05-05T20:48:57.366Z,62.59
2019-05-05T20:52:05.784Z,63.13
2019-05-05T20:54:34.272Z,63.14
2019-05-05T20:57:21.915Z,63.35
2019-05-05T20:59:50.402Z,63.73
2019-05-05T21:02:18.795Z,63.51
2019-05-05T21:05:06.322Z,63.92
2019-05-05T21:07:34.818Z,64.16
2019-05-05T21:12:58.183Z,64.47
2019-05-05T21:15:45.702Z,64.43
2019-05-05T21:18:14.474Z,64.90
2019-05-05T21:24:11.707Z,64.95
2019-05-05T21:26:59.219Z,65.53
2019-05-05T21:29:38.539Z,65.71
2019-05-05T21:31:57.760Z,65.86
2019-05-05T21:34:45.416Z,65.90
2019-05-05T21:37:14.270Z,66.40
2019-05-05T21:39:45.449Z,66.90
2019-05-05T21:45:20.759Z,67.04
2019-05-05T21:48:08.411Z,66.95
2019-05-05T21:50:55.936Z,66.68
2019-05-05T21:54:04.432Z,66.57
2019-05-05T21:59:23.654Z,66.49
2019-05-05T22:01:52.021Z,66.85
2019-05-05T22:04:39.674Z,67.17
2019-05-05T22:07:08.074Z,67.38
2019-05-05T22:09:36.524Z,67.81
2019-05-05T22:14:54.797Z,68.10
2019-05-05T22:17:22.480Z,68.44
2019-05-05T22:20:10.009Z,69.15
2019-05-05T22:28:01.161Z,69.79
2019-05-05T22:30:29.570Z,69.93
2019-05-05T22:33:17.085Z,69.81
2019-05-05T22:35:45.495Z,70.28
2019-05-05T22:38:33.974Z,70.37
2019-05-05T22:41:03.258Z,70.61
2019-05-05T22:46:38.216Z,71.96
2019-05-05T22:49:06.612Z,72.57
2019-05-05T22:51:54.283Z,72.56
2019-05-05T22:54:41.750Z,72.80
2019-05-05T23:05:50.151Z,73.31
2019-05-05T23:08:18.786Z,73.61
2019-05-05T23:10:48.669Z,73.76
2019-05-05T23:13:36.311Z,74.06
2019-05-05T23:16:26.432Z,74.28
2019-05-05T23:18:54.668Z,74.91
2019-05-05T23:21:43.857Z,75.54
2019-05-05T23:24:31.381Z,75.97
2019-05-05T23:26:59.790Z,75.98
2019-05-05T23:29:28.198Z,76.28
2019-05-05T23:31:56.604Z,76.24
2019-05-05T23:35:04.916Z,76.29
2019-05-05T23:37:52.438Z,76.21
2019-05-05T23:41:00.793Z,75.41
2019-05-05T23:43:29.192Z,75.12
2019-05-05T23:46:16.712Z,74.43
2019-05-05T23:48:45.117Z,74.67
2019-05-05T23:51:14.054Z,74.42
2019-05-05T23:54:24.679Z,75.47
2019-05-05T23:56:53.939Z,75.69
2019-05-05T23:59:44.113Z,75.77
